Time;durP1;ratioP1;P1;durP2;ratioP2;P2;SDS_P1;SDS_P2;PMS_P1;PMS_P2;Temp;Humidity;BMP_temperature;BMP_pressure;BME280_temperature;BME280_humidity;BME280_pressure;Samples;Min_cycle;Max_cycle;Signal;HPM_P1;HPM_P2
2021/04/23 00:00:00;;;;;;;8.27;4.70;;;12.90;37.70;;;;;;5013053;28;20667;-50
2021/04/23 00:02:27;;;;;;;12.07;6.53;;;12.90;37.50;;;;;;5013223;28;21018;-50
2021/04/23 00:04:54;;;;;;;7.17;4.73;;;12.90;37.30;;;;;;5013393;28;20686;-51
2021/04/23 00:07:20;;;;;;;13.13;5.90;;;12.80;37.40;;;;;;5003800;28;20632;-51
2021/04/23 00:09:48;;;;;;;10.93;4.67;;;12.80;37.50;;;;;;5004793;28;20665;-50
2021/04/23 00:12:15;;;;;;;6.87;4.90;;;12.70;37.30;;;;;;4985108;28;20674;-51
2021/04/23 00:14:43;;;;;;;11.50;5.10;;;12.70;37.30;;;;;;5013193;28;20636;-51
2021/04/23 00:17:10;;;;;;;11.37;5.37;;;12.70;37.30;;;;;;5012758;28;20682;-50
2021/04/23 00:19:37;;;;;;;7.43;5.70;;;12.70;37.50;;;;;;5002039;28;20672;-50
2021/04/23 00:22:04;;;;;;;15.87;5.90;;;12.70;37.50;;;;;;4993122;28;21182;-51
2021/04/23 00:24:31;;;;;;;11.80;6.07;;;12.70;37.60;;;;;;4993125;28;20640;-52
2021/04/23 00:26:58;;;;;;;10.40;5.00;;;12.60;37.70;;;;;;5004295;28;20631;-50
2021/04/23 00:29:25;;;;;;;9.70;5.30;;;12.60;37.80;;;;;;5012358;28;20662;-51
2021/04/23 00:34:37;;;;;;;9.27;5.70;;;12.50;38.00;;;;;;5012547;28;21188;-51
2021/04/23 00:37:04;;;;;;;13.93;5.93;;;12.50;38.00;;;;;;5012462;28;20671;-51
2021/04/23 00:39:31;;;;;;;6.93;5.03;;;12.50;38.30;;;;;;5010174;28;21066;-51
2021/04/23 00:41:58;;;;;;;11.67;6.70;;;12.50;38.10;;;;;;5012396;28;21051;-51
2021/04/23 00:44:25;;;;;;;11.73;4.97;;;12.40;38.00;;;;;;5012579;28;20686;-51
2021/04/23 00:46:52;;;;;;;7.30;4.83;;;12.40;38.20;;;;;;5012678;28;20632;-51
2021/04/23 00:49:18;;;;;;;5.97;5.30;;;12.40;38.60;;;;;;5012280;28;20660;-50
2021/04/23 00:51:51;;;;;;;13.20;5.70;;;12.30;38.50;;;;;;5012391;28;20662;-51
2021/04/23 00:54:18;;;;;;;7.17;5.10;;;12.30;38.90;;;;;;5003842;28;20633;-50
2021/04/23 00:56:45;;;;;;;8.57;5.13;;;12.30;39.40;;;;;;4992757;28;20689;-51
2021/04/23 00:59:13;;;;;;;19.77;5.80;;;12.30;39.90;;;;;;4992190;28;20723;-51
2021/04/23 01:01:40;;;;;;;9.80;6.30;;;12.20;40.00;;;;;;4992737;28;20693;-51
2021/04/23 01:04:08;;;;;;;7.47;5.83;;;12.20;40.30;;;;;;4992427;28;21213;-51
2021/04/23 01:06:35;;;;;;;15.03;5.80;;;12.20;40.50;;;;;;4992587;28;20695;-51
2021/04/23 01:09:07;;;;;;;12.80;5.90;;;12.20;39.90;;;;;;4997398;28;20886;-51
2021/04/23 01:11:34;;;;;;;7.90;5.40;;;12.10;39.50;;;;;;4975233;28;20625;-51
2021/04/23 01:14:01;;;;;;;8.13;5.00;;;12.00;39.30;;;;;;4973454;28;20973;-51
2021/04/23 01:16:29;;;;;;;14.83;6.53;;;11.90;39.50;;;;;;4973004;28;20688;-51
2021/04/23 01:18:55;;;;;;;9.20;5.80;;;11.90;39.50;;;;;;5001450;28;20714;-51
2021/04/23 01:21:24;;;;;;;10.47;5.83;;;11.80;39.30;;;;;;5011955;28;20710;-51
2021/04/23 01:23:51;;;;;;;7.20;5.77;;;11.80;39.30;;;;;;5011761;28;21246;-51
2021/04/23 01:26:20;;;;;;;9.50;5.40;;;11.80;40.20;;;;;;5011789;28;20687;-51
2021/04/23 01:28:47;;;;;;;10.70;4.70;;;11.80;41.90;;;;;;4996154;28;21275;-52
2021/04/23 01:31:15;;;;;;;9.63;5.10;;;11.80;40.80;;;;;;4992056;28;20621;-51
2021/04/23 01:33:44;;;;;;;8.97;5.60;;;11.70;40.70;;;;;;4991557;28;20683;-51
2021/04/23 01:36:12;;;;;;;8.27;5.10;;;11.70;40.90;;;;;;4991971;28;20683;-51
2021/04/23 01:38:40;;;;;;;7.30;4.53;;;11.60;41.10;;;;;;4992830;28;20660;-51
2021/04/23 01:41:07;;;;;;;6.03;4.60;;;11.60;40.90;;;;;;4992278;28;20719;-51
2021/04/23 01:43:34;;;;;;;10.47;5.60;;;11.60;40.80;;;;;;4991957;28;20625;-51
2021/04/23 01:46:01;;;;;;;6.97;5.37;;;11.40;40.50;;;;;;4992316;28;20628;-50
2021/04/23 01:48:28;;;;;;;7.47;5.30;;;11.40;40.90;;;;;;4976769;28;21210;-50
2021/04/23 01:50:54;;;;;;;14.37;6.53;;;11.40;40.80;;;;;;4972541;28;20621;-50
2021/04/23 01:53:21;;;;;;;10.67;5.30;;;11.30;40.60;;;;;;4989113;28;21235;-50
2021/04/23 01:55:49;;;;;;;16.73;6.10;;;11.30;40.60;;;;;;5011861;28;20624;-50
2021/04/23 01:58:15;;;;;;;11.53;5.13;;;11.30;40.90;;;;;;5011318;28;20655;-51
2021/04/23 02:00:45;;;;;;;10.90;5.73;;;11.30;41.10;;;;;;5011174;28;20656;-50
2021/04/23 02:03:12;;;;;;;8.70;6.03;;;11.30;40.80;;;;;;5011423;28;20624;-51
2021/04/23 02:05:38;;;;;;;6.63;5.57;;;11.20;40.80;;;;;;5011280;28;21070;-51
2021/04/23 02:08:05;;;;;;;10.60;5.60;;;11.20;41.00;;;;;;4995999;28;20637;-51
2021/04/23 02:10:35;;;;;;;8.30;5.37;;;11.10;41.10;;;;;;4991512;28;20637;-50
2021/04/23 02:13:03;;;;;;;11.33;7.80;;;11.20;42.30;;;;;;4992118;28;20683;-51
2021/04/23 02:15:31;;;;;;;6.33;5.20;;;11.20;42.60;;;;;;4991508;28;20687;-51
2021/04/23 02:17:58;;;;;;;9.70;5.10;;;11.20;42.80;;;;;;4991107;28;20628;-51
2021/04/23 02:20:26;;;;;;;6.93;5.77;;;11.20;42.70;;;;;;4991582;28;20712;-51
2021/04/23 02:22:53;;;;;;;11.53;6.60;;;11.10;42.10;;;;;;4991782;28;21217;-50
2021/04/23 02:25:20;;;;;;;11.43;5.63;;;11.00;42.00;;;;;;4992029;28;20621;-50
2021/04/23 02:27:47;;;;;;;10.07;5.80;;;11.00;42.40;;;;;;4991166;28;20694;-50
2021/04/23 02:30:17;;;;;;;7.00;5.90;;;11.00;42.70;;;;;;4991820;28;20664;-50
2021/04/23 02:32:44;;;;;;;8.30;5.23;;;11.00;43.60;;;;;;4993877;28;20687;-51
2021/04/23 02:35:18;;;;;;;10.90;4.97;;;11.10;42.90;;;;;;4995339;28;20683;-50
2021/04/23 02:37:44;;;;;;;7.63;5.70;;;11.00;42.40;;;;;;4995074;28;20702;-50
2021/04/23 02:40:13;;;;;;;9.93;5.70;;;11.00;42.30;;;;;;4995448;28;20656;-51
2021/04/23 02:42:40;;;;;;;10.87;7.07;;;11.00;42.00;;;;;;4995249;28;20631;-51
2021/04/23 02:45:08;;;;;;;10.20;5.60;;;10.90;42.50;;;;;;4994835;28;20624;-51
2021/04/23 02:47:36;;;;;;;11.23;5.77;;;10.90;42.70;;;;;;4994691;28;20693;-50
2021/04/23 02:50:03;;;;;;;17.73;6.73;;;10.80;42.50;;;;;;4994787;28;20660;-51
2021/04/23 02:52:30;;;;;;;6.77;6.07;;;10.70;42.40;;;;;;4995303;28;20675;-51
2021/04/23 02:54:57;;;;;;;12.90;5.97;;;10.70;42.80;;;;;;4994920;28;20699;-51
2021/04/23 02:57:24;;;;;;;12.53;5.70;;;10.70;43.20;;;;;;4995094;28;20687;-51
2021/04/23 02:59:50;;;;;;;8.80;5.90;;;10.70;43.30;;;;;;4994923;28;20656;-51
2021/04/23 03:02:17;;;;;;;9.30;6.20;;;10.70;43.40;;;;;;4994576;28;20733;-51
2021/04/23 03:04:45;;;;;;;7.67;6.50;;;10.80;43.90;;;;;;4994857;28;20632;-51
2021/04/23 03:07:12;;;;;;;8.37;5.80;;;10.80;43.90;;;;;;4994560;28;20915;-51
2021/04/23 03:09:38;;;;;;;10.30;6.43;;;10.80;43.90;;;;;;4992016;28;20672;-51
2021/04/23 03:12:06;;;;;;;10.43;6.33;;;10.80;44.10;;;;;;4975227;28;21035;-51
2021/04/23 03:14:33;;;;;;;11.47;5.90;;;10.90;44.10;;;;;;4975303;28;20629;-51
2021/04/23 03:17:00;;;;;;;6.70;5.63;;;10.90;44.10;;;;;;4975001;28;20634;-51
2021/04/23 03:19:26;;;;;;;8.53;5.93;;;10.90;44.10;;;;;;5004692;28;21092;-50
2021/04/23 03:21:54;;;;;;;10.13;5.73;;;10.90;44.10;;;;;;5013875;28;20652;-50
2021/04/23 03:24:21;;;;;;;9.33;5.10;;;11.00;44.00;;;;;;5014263;28;20626;-49
2021/04/23 03:26:47;;;;;;;11.47;6.00;;;11.00;43.70;;;;;;5013886;28;20996;-51
2021/04/23 03:29:15;;;;;;;7.10;5.53;;;11.00;43.60;;;;;;5013364;28;20651;-51
2021/04/23 03:31:42;;;;;;;9.87;5.97;;;11.00;43.60;;;;;;5013914;28;20681;-51
2021/04/23 03:34:09;;;;;;;11.73;6.20;;;11.00;43.90;;;;;;4998215;28;20623;-51
2021/04/23 03:36:35;;;;;;;10.60;6.97;;;11.00;43.40;;;;;;5001464;28;20636;-51
2021/04/23 03:39:04;;;;;;;12.27;6.60;;;11.00;43.20;;;;;;5012755;28;20655;-51
2021/04/23 03:41:32;;;;;;;8.13;5.50;;;10.90;42.80;;;;;;4977012;28;20759;-51
2021/04/23 03:43:59;;;;;;;8.67;6.20;;;10.80;42.80;;;;;;4988407;28;20624;-50
2021/04/23 03:46:26;;;;;;;9.83;6.10;;;10.60;42.90;;;;;;4993204;28;20630;-51
2021/04/23 03:48:52;;;;;;;18.23;8.13;;;10.50;43.00;;;;;;4993700;28;20661;-51
2021/04/23 03:51:19;;;;;;;12.57;6.83;;;10.40;43.40;;;;;;4993899;28;20631;-51
2021/04/23 03:53:46;;;;;;;9.73;6.57;;;10.30;43.90;;;;;;4973928;28;21193;-50
2021/04/23 03:56:14;;;;;;;12.17;7.10;;;10.30;44.20;;;;;;4975352;28;20633;-51
2021/04/23 03:58:41;;;;;;;12.07;8.90;;;10.30;44.70;;;;;;4993477;28;21012;-51
2021/04/23 04:01:08;;;;;;;9.67;7.50;;;10.40;44.40;;;;;;4993676;28;21302;-51
2021/04/23 04:03:36;;;;;;;14.57;7.83;;;10.40;44.50;;;;;;4993554;28;20632;-51
2021/04/23 04:06:03;;;;;;;12.77;8.00;;;10.30;44.40;;;;;;4994205;28;20663;-50
2021/04/23 04:08:30;;;;;;;10.20;7.80;;;10.30;44.20;;;;;;4993008;28;21204;-50
2021/04/23 04:10:57;;;;;;;13.10;6.47;;;10.30;44.50;;;;;;4993613;28;20637;-50
2021/04/23 04:13:24;;;;;;;7.63;5.83;;;10.20;44.70;;;;;;4993618;28;21228;-51
2021/04/23 04:15:51;;;;;;;14.13;6.60;;;10.20;44.90;;;;;;4993764;28;20682;-50
2021/04/23 04:18:18;;;;;;;9.77;5.87;;;10.20;44.80;;;;;;4992748;28;20710;-51
2021/04/23 04:20:46;;;;;;;7.53;6.43;;;10.30;45.20;;;;;;4993138;28;21202;-51
2021/04/23 04:23:15;;;;;;;12.03;6.70;;;10.20;45.30;;;;;;4992594;28;20668;-50
2021/04/23 04:25:43;;;;;;;10.07;6.17;;;10.20;45.30;;;;;;4992943;28;20639;-50
2021/04/23 04:28:10;;;;;;;8.10;6.00;;;10.20;45.30;;;;;;4993274;28;20640;-50
2021/04/23 04:30:37;;;;;;;9.07;7.00;;;10.20;45.30;;;;;;4993091;28;20644;-50
2021/04/23 04:33:05;;;;;;;10.50;6.07;;;10.20;45.20;;;;;;4975321;28;21193;-50
2021/04/23 04:35:32;;;;;;;11.97;6.50;;;10.10;45.40;;;;;;4992834;28;20639;-50
2021/04/23 04:37:59;;;;;;;12.07;7.20;;;10.10;46.00;;;;;;4992446;28;20628;-50
2021/04/23 04:40:26;;;;;;;11.37;5.70;;;10.10;45.60;;;;;;4983832;28;21028;-50
2021/04/23 04:42:53;;;;;;;12.33;6.57;;;10.10;45.40;;;;;;4979903;28;20714;-50
2021/04/23 04:45:21;;;;;;;8.13;6.77;;;10.10;45.40;;;;;;4992955;28;21247;-50
2021/04/23 04:47:49;;;;;;;10.73;6.30;;;10.10;45.10;;;;;;4992640;28;21184;-50
2021/04/23 04:50:17;;;;;;;13.03;6.93;;;10.00;45.00;;;;;;4992781;28;20665;-51
2021/04/23 04:52:44;;;;;;;8.87;5.97;;;10.00;45.00;;;;;;4992270;28;21192;-50
2021/04/23 04:55:12;;;;;;;17.33;7.00;;;9.90;46.20;;;;;;4991626;28;20625;-50
2021/04/23 04:57:39;;;;;;;7.53;6.27;;;10.00;46.00;;;;;;4992197;28;20624;-51
2021/04/23 05:00:07;;;;;;;7.80;6.97;;;10.00;46.00;;;;;;4992419;28;20659;-50
2021/04/23 05:02:34;;;;;;;17.53;7.50;;;10.10;45.60;;;;;;4992112;28;20744;-51
2021/04/23 05:05:01;;;;;;;11.23;7.50;;;10.00;45.30;;;;;;4992689;28;20733;-51
2021/04/23 05:07:28;;;;;;;9.23;7.57;;;10.00;45.70;;;;;;4992167;28;20690;-51
2021/04/23 05:09:55;;;;;;;8.60;6.80;;;10.10;45.80;;;;;;4991728;28;20667;-51
2021/04/23 05:12:21;;;;;;;12.63;7.80;;;10.10;45.60;;;;;;4991622;28;20788;-50
2021/04/23 05:14:48;;;;;;;11.53;6.30;;;10.10;45.60;;;;;;4991832;28;21019;-51
2021/04/23 05:17:15;;;;;;;7.83;6.03;;;10.10;45.80;;;;;;4991888;28;20624;-52
2021/04/23 05:19:42;;;;;;;17.23;7.60;;;10.10;45.70;;;;;;4990964;28;20663;-51
2021/04/23 05:22:09;;;;;;;11.07;6.90;;;10.10;46.00;;;;;;4991286;28;20745;-51
2021/04/23 05:24:36;;;;;;;9.90;6.90;;;10.20;46.10;;;;;;4989033;28;20632;-51
2021/04/23 05:27:03;;;;;;;13.87;8.40;;;10.20;46.20;;;;;;4991556;28;20633;-51
2021/04/23 05:29:30;;;;;;;11.27;7.47;;;10.30;46.00;;;;;;4991482;28;20668;-51
2021/04/23 05:31:57;;;;;;;9.33;7.37;;;10.20;45.60;;;;;;4992022;28;20670;-52
2021/04/23 05:34:23;;;;;;;10.87;5.93;;;10.20;45.70;;;;;;4979816;28;20630;-50
2021/04/23 05:36:50;;;;;;;13.07;7.30;;;10.20;45.80;;;;;;4985262;28;20683;-50
2021/04/23 05:39:18;;;;;;;10.43;5.53;;;10.20;45.70;;;;;;4990591;28;20717;-52
2021/04/23 05:41:44;;;;;;;8.57;5.73;;;10.20;45.80;;;;;;4977386;28;20714;-51
2021/04/23 05:44:11;;;;;;;14.10;7.30;;;10.20;46.00;;;;;;4991172;28;20695;-51
2021/04/23 05:46:38;;;;;;;14.27;7.67;;;10.20;46.30;;;;;;4991333;28;20682;-51
2021/04/23 05:49:05;;;;;;;10.40;6.47;;;10.30;46.30;;;;;;4990606;28;21295;-51
2021/04/23 05:51:32;;;;;;;16.57;7.83;;;10.30;46.10;;;;;;4991569;28;20628;-52
2021/04/23 05:53:59;;;;;;;11.37;7.37;;;10.40;46.00;;;;;;4991295;28;20691;-51
2021/04/23 05:56:26;;;;;;;9.20;6.10;;;10.40;45.70;;;;;;4991003;28;20687;-51
2021/04/23 05:58:54;;;;;;;7.90;6.53;;;10.50;45.70;;;;;;4990951;28;20664;-52
2021/04/23 06:01:21;;;;;;;6.60;6.00;;;10.50;45.60;;;;;;4991187;28;20687;-51
2021/04/23 06:03:49;;;;;;;7.60;6.23;;;10.50;45.70;;;;;;4991115;28;20667;-51
2021/04/23 06:06:16;;;;;;;12.47;6.43;;;10.50;45.60;;;;;;4993266;28;21020;-52
2021/04/23 06:08:42;;;;;;;10.90;7.13;;;10.60;45.60;;;;;;4995242;28;20705;-51
2021/04/23 06:11:14;;;;;;;8.00;6.40;;;10.60;45.60;;;;;;4995354;28;20695;-52
2021/04/23 06:13:42;;;;;;;12.47;5.63;;;10.70;45.70;;;;;;4994972;28;20714;-52
2021/04/23 06:16:09;;;;;;;8.87;6.50;;;10.70;45.60;;;;;;4995012;28;20633;-52
2021/04/23 06:18:36;;;;;;;10.10;7.10;;;10.70;45.40;;;;;;4993987;28;21300;-52
2021/04/23 06:21:03;;;;;;;10.03;7.50;;;10.70;45.60;;;;;;4995345;28;20751;-53
2021/04/23 06:23:30;;;;;;;11.13;6.70;;;10.70;45.60;;;;;;4995047;28;20629;-52
2021/04/23 06:25:56;;;;;;;11.50;5.90;;;10.80;45.70;;;;;;4994852;28;21158;-51
2021/04/23 06:28:23;;;;;;;8.80;6.10;;;10.80;45.60;;;;;;4990494;28;20730;-52
2021/04/23 06:30:51;;;;;;;9.73;6.80;;;10.80;45.60;;;;;;4981789;28;21177;-52
2021/04/23 06:33:20;;;;;;;9.77;7.40;;;10.90;45.80;;;;;;4994287;28;21017;-52
2021/04/23 06:35:47;;;;;;;8.23;7.40;;;11.10;45.60;;;;;;4995048;28;20624;-52
2021/04/23 06:38:14;;;;;;;13.67;5.50;;;11.30;45.20;;;;;;4993878;28;20967;-51
2021/04/23 06:40:41;;;;;;;9.40;5.93;;;11.40;44.90;;;;;;4983313;28;20642;-52
2021/04/23 06:43:08;;;;;;;7.13;5.20;;;11.60;44.60;;;;;;4985079;28;21029;-51
2021/04/23 06:45:35;;;;;;;9.87;5.83;;;11.70;44.70;;;;;;4994181;28;20616;-52
2021/04/23 06:48:03;;;;;;;11.63;6.60;;;11.90;44.40;;;;;;4993267;28;21248;-52
2021/04/23 06:50:30;;;;;;;11.30;5.87;;;12.00;43.90;;;;;;4976744;28;20672;-52
2021/04/23 06:52:57;;;;;;;11.27;6.83;;;12.20;43.70;;;;;;5004544;28;20710;-52
2021/04/23 06:55:24;;;;;;;9.50;6.03;;;12.40;43.50;;;;;;4977797;28;20687;-52
2021/04/23 06:57:50;;;;;;;8.03;5.30;;;12.50;43.10;;;;;;4977072;28;20674;-52
2021/04/23 07:00:19;;;;;;;9.40;6.80;;;12.70;42.70;;;;;;4994324;28;21055;-52
2021/04/23 07:02:46;;;;;;;9.50;6.93;;;12.90;42.40;;;;;;4994132;28;20727;-52
2021/04/23 07:05:14;;;;;;;8.13;5.83;;;13.00;42.30;;;;;;4994187;28;20635;-53
2021/04/23 07:07:41;;;;;;;9.93;6.53;;;13.10;42.10;;;;;;4993878;28;20624;-53
2021/04/23 07:10:09;;;;;;;12.70;6.50;;;13.20;42.00;;;;;;4986827;28;20671;-53
2021/04/23 07:12:36;;;;;;;7.33;6.00;;;13.40;41.60;;;;;;4988521;28;20620;-51
2021/04/23 07:15:03;;;;;;;8.03;6.40;;;13.60;41.50;;;;;;4994623;28;20628;-53
2021/04/23 07:17:30;;;;;;;10.50;5.57;;;13.70;40.80;;;;;;4992283;28;20628;-50
2021/04/23 07:19:57;;;;;;;7.90;6.33;;;13.90;40.90;;;;;;4999770;28;21059;-52
2021/04/23 07:22:25;;;;;;;6.20;5.60;;;14.00;40.40;;;;;;4996141;28;20709;-52
2021/04/23 07:24:52;;;;;;;8.00;5.93;;;14.10;40.00;;;;;;5005397;28;20661;-53
2021/04/23 07:27:18;;;;;;;11.87;5.70;;;14.20;39.80;;;;;;4982587;28;20691;-52
2021/04/23 07:29:47;;;;;;;9.10;7.40;;;14.40;39.80;;;;;;4999648;28;20662;-52
2021/04/23 07:32:14;;;;;;;7.23;5.80;;;14.50;39.90;;;;;;5007064;28;20625;-52
2021/04/23 07:34:41;;;;;;;6.63;6.03;;;14.60;39.50;;;;;;4996422;28;20659;-52
2021/04/23 07:37:08;;;;;;;9.87;6.10;;;14.80;39.20;;;;;;5008484;28;20693;-52
2021/04/23 07:39:35;;;;;;;10.40;6.40;;;14.90;39.30;;;;;;4997649;28;20656;-52
2021/04/23 07:42:02;;;;;;;7.43;5.97;;;15.10;39.20;;;;;;4993590;28;21221;-52
2021/04/23 07:44:29;;;;;;;11.53;6.33;;;15.40;38.60;;;;;;4993281;28;20652;-50
2021/04/23 07:46:56;;;;;;;11.93;6.40;;;15.60;38.00;;;;;;4997828;28;20632;-50
2021/04/23 07:49:23;;;;;;;7.47;6.23;;;15.70;37.70;;;;;;4993710;28;21232;-50
2021/04/23 07:51:49;;;;;;;10.30;6.33;;;15.90;36.90;;;;;;4998691;28;20652;-52
2021/04/23 07:54:16;;;;;;;7.80;6.90;;;15.90;36.70;;;;;;4994446;28;21176;-51
2021/04/23 07:56:44;;;;;;;15.20;7.70;;;16.00;36.70;;;;;;4995422;28;20989;-52
2021/04/23 07:59:10;;;;;;;8.23;6.70;;;16.20;36.80;;;;;;5005945;28;20771;-52
2021/04/23 08:01:37;;;;;;;6.80;6.10;;;16.30;36.60;;;;;;5002162;28;20621;-50
2021/04/23 08:04:05;;;;;;;8.07;6.90;;;16.40;36.50;;;;;;5001068;28;20633;-52
2021/04/23 08:06:32;;;;;;;11.47;7.03;;;16.50;36.30;;;;;;4993331;28;20686;-52
2021/04/23 08:08:59;;;;;;;11.30;8.70;;;16.70;35.70;;;;;;4995476;28;20674;-52
2021/04/23 08:11:26;;;;;;;10.90;7.67;;;16.80;35.40;;;;;;5004229;28;20682;-51
2021/04/23 08:13:54;;;;;;;11.33;6.83;;;17.00;35.40;;;;;;4992916;28;20675;-51
2021/04/23 08:16:21;;;;;;;12.07;7.40;;;17.10;35.20;;;;;;4995256;28;21240;-51
2021/04/23 08:18:52;;;;;;;7.50;6.77;;;17.20;34.90;;;;;;5010235;28;21022;-51
2021/04/23 08:21:19;;;;;;;9.30;7.30;;;17.40;34.90;;;;;;5012322;28;20675;-51
2021/04/23 08:23:47;;;;;;;8.50;6.67;;;17.40;34.40;;;;;;5008750;28;20752;-50
2021/04/23 08:26:14;;;;;;;7.00;6.30;;;17.40;34.20;;;;;;4981321;28;21206;-51
2021/04/23 08:28:40;;;;;;;6.93;6.23;;;17.40;34.40;;;;;;4989991;28;21224;-51
2021/04/23 08:31:08;;;;;;;14.60;7.37;;;17.40;34.20;;;;;;4992436;28;20715;-51
2021/04/23 08:33:35;;;;;;;8.40;6.63;;;17.40;34.40;;;;;;5005399;28;21459;-51
2021/04/23 08:36:02;;;;;;;9.43;7.00;;;17.40;34.50;;;;;;4995171;28;21273;-51
2021/04/23 08:38:29;;;;;;;8.97;8.03;;;17.40;34.40;;;;;;4991695;28;20656;-51
2021/04/23 08:40:56;;;;;;;10.73;8.37;;;17.40;34.10;;;;;;4996763;28;20640;-50
2021/04/23 08:43:23;;;;;;;14.43;8.90;;;17.10;34.20;;;;;;4991924;28;21036;-50
2021/04/23 08:45:50;;;;;;;12.43;7.93;;;16.90;34.80;;;;;;4983455;28;20662;-50
2021/04/23 08:48:18;;;;;;;6.90;6.30;;;16.90;35.50;;;;;;4985741;28;21010;-51
2021/04/23 08:50:45;;;;;;;17.07;7.90;;;16.90;35.10;;;;;;4993093;28;20678;-51
2021/04/23 08:53:11;;;;;;;11.70;8.30;;;17.00;35.30;;;;;;4993599;28;20679;-51
2021/04/23 08:55:38;;;;;;;9.87;7.93;;;17.20;35.20;;;;;;4988131;28;20633;-51
2021/04/23 08:58:05;;;;;;;11.03;8.73;;;17.40;34.60;;;;;;5004586;28;20891;-51
2021/04/23 09:00:32;;;;;;;9.60;8.67;;;17.70;34.20;;;;;;4996172;28;20674;-52
2021/04/23 09:02:59;;;;;;;11.83;7.60;;;17.90;33.50;;;;;;4983208;28;20784;-51
2021/04/23 09:05:26;;;;;;;12.77;8.20;;;18.10;33.20;;;;;;4991709;28;20679;-51
2021/04/23 09:08:00;;;;;;;12.03;8.27;;;18.10;32.70;;;;;;4990767;28;20703;-52
2021/04/23 09:10:27;;;;;;;11.63;7.77;;;18.20;32.70;;;;;;4993984;28;20636;-51
2021/04/23 09:13:07;;;;;;;11.17;8.87;;;18.00;33.10;;;;;;5009607;28;20616;-52
2021/04/23 09:15:35;;;;;;;9.13;7.47;;;17.80;33.50;;;;;;5005983;28;20640;-52
2021/04/23 09:18:09;;;;;;;14.20;8.30;;;17.70;33.30;;;;;;4995127;28;20638;-52
2021/04/23 09:20:37;;;;;;;9.50;7.43;;;17.60;33.30;;;;;;5003018;28;20653;-52
2021/04/23 09:23:08;;;;;;;13.67;8.07;;;17.60;33.40;;;;;;4990878;28;20657;-52
2021/04/23 09:25:40;;;;;;;12.27;8.50;;;17.60;33.00;;;;;;4991609;28;20687;-52
2021/04/23 09:28:07;;;;;;;13.40;7.77;;;17.50;33.30;;;;;;4995911;28;21028;-52
2021/04/23 09:30:34;;;;;;;17.67;8.60;;;17.40;33.50;;;;;;4990016;28;20625;-52
2021/04/23 09:33:01;;;;;;;10.07;7.83;;;17.30;33.40;;;;;;5001339;28;20656;-52
2021/04/23 09:35:27;;;;;;;11.87;9.33;;;17.30;33.90;;;;;;4992891;28;20991;-51
2021/04/23 09:37:59;;;;;;;13.40;9.47;;;17.30;34.00;;;;;;4991580;28;20992;-53
2021/04/23 09:40:29;;;;;;;10.00;8.00;;;17.40;33.90;;;;;;4988762;28;21064;-51
2021/04/23 09:42:58;;;;;;;8.07;7.27;;;17.60;33.70;;;;;;5004151;28;20668;-52
2021/04/23 09:45:25;;;;;;;8.47;7.47;;;17.80;33.40;;;;;;4990628;28;20699;-53
2021/04/23 09:47:52;;;;;;;10.83;8.27;;;18.10;33.00;;;;;;5006309;28;20625;-52
2021/04/23 09:50:19;;;;;;;10.17;7.73;;;18.50;32.70;;;;;;5004096;28;21290;-52
2021/04/23 09:52:48;;;;;;;11.30;7.27;;;18.90;31.80;;;;;;4998193;28;21177;-51
2021/04/23 09:55:16;;;;;;;11.40;7.70;;;19.30;31.30;;;;;;4994100;28;20621;-53
2021/04/23 09:57:53;;;;;;;9.57;7.87;;;19.50;30.90;;;;;;4993362;28;20620;-52
2021/04/23 10:00:24;;;;;;;13.30;8.43;;;19.70;30.60;;;;;;5010513;28;20659;-51
2021/04/23 10:02:51;;;;;;;14.97;9.00;;;19.90;30.60;;;;;;4977769;28;21214;-51
2021/04/23 10:05:29;;;;;;;9.93;8.33;;;20.20;30.00;;;;;;4991237;28;20744;-50
2021/04/23 10:07:56;;;;;;;10.20;7.93;;;20.50;29.80;;;;;;4993681;28;20633;-52
2021/04/23 10:10:23;;;;;;;11.40;9.77;;;20.80;29.60;;;;;;5000729;28;20663;-51
2021/04/23 10:12:52;;;;;;;9.17;7.90;;;21.00;29.10;;;;;;4991765;28;20684;-52
2021/04/23 10:15:20;;;;;;;10.47;7.10;;;21.00;28.60;;;;;;4990678;28;20628;-53
2021/04/23 10:17:48;;;;;;;11.47;7.83;;;20.80;28.70;;;;;;4990969;28;20632;-52
2021/04/23 10:20:16;;;;;;;9.50;6.47;;;20.70;28.40;;;;;;4991068;28;20681;-51
2021/04/23 10:22:43;;;;;;;10.90;9.87;;;20.90;28.40;;;;;;4990929;28;20657;-52
2021/04/23 10:25:11;;;;;;;8.87;7.50;;;21.20;28.30;;;;;;4991327;28;20632;-51
2021/04/23 10:27:41;;;;;;;7.87;7.07;;;21.30;28.10;;;;;;4990514;28;20617;-51
2021/04/23 10:30:10;;;;;;;8.73;7.77;;;21.50;28.00;;;;;;4991464;28;20699;-52
2021/04/23 10:32:37;;;;;;;6.50;5.90;;;21.70;27.90;;;;;;4971848;28;21186;-51
2021/04/23 10:35:05;;;;;;;9.70;6.77;;;21.80;27.50;;;;;;4971720;28;21035;-51
2021/04/23 10:37:32;;;;;;;8.20;6.07;;;21.90;27.30;;;;;;4973815;28;20652;-51
2021/04/23 10:39:59;;;;;;;10.87;7.27;;;21.70;27.10;;;;;;4990582;28;20691;-50
2021/04/23 10:42:48;;;;;;;16.30;6.90;;;21.30;27.20;;;;;;4991480;28;20665;-51
2021/04/23 10:45:33;;;;;;;8.43;6.83;;;21.10;27.50;;;;;;4990840;28;20687;-52
2021/04/23 10:48:01;;;;;;;10.87;6.90;;;20.90;27.90;;;;;;4971707;28;21038;-51
2021/04/23 10:50:29;;;;;;;7.87;6.73;;;20.80;27.80;;;;;;4990315;28;20675;-51
2021/04/23 10:53:04;;;;;;;9.07;6.20;;;20.70;27.60;;;;;;4992236;28;20695;-51
2021/04/23 10:55:50;;;;;;;11.27;7.43;;;20.60;28.00;;;;;;4995266;28;20620;-51
2021/04/23 10:58:34;;;;;;;8.40;7.37;;;20.50;28.10;;;;;;4994655;28;20652;-51
2021/04/23 11:01:02;;;;;;;11.70;5.93;;;20.40;28.00;;;;;;4995113;28;20632;-51
2021/04/23 11:03:31;;;;;;;15.70;9.07;;;20.10;27.60;;;;;;5000482;28;21186;-52
2021/04/23 11:06:00;;;;;;;9.50;7.70;;;19.80;27.90;;;;;;5001405;28;20675;-53
2021/04/23 11:08:28;;;;;;;8.63;6.40;;;19.80;27.90;;;;;;4993712;28;21057;-50
2021/04/23 11:11:15;;;;;;;11.70;6.07;;;20.10;28.10;;;;;;4994053;28;21189;-53
2021/04/23 11:13:47;;;;;;;9.10;5.80;;;21.00;27.20;;;;;;4989409;28;20645;-52
2021/04/23 11:16:27;;;;;;;8.73;5.83;;;21.70;26.50;;;;;;4993411;28;20694;-52
2021/04/23 11:18:54;;;;;;;7.37;5.73;;;22.20;26.00;;;;;;4997308;28;20703;-53
2021/04/23 11:21:38;;;;;;;8.73;7.07;;;22.60;25.70;;;;;;5012458;28;21029;-54
2021/04/23 11:24:12;;;;;;;7.70;6.90;;;23.00;25.40;;;;;;4995316;28;20691;-53
2021/04/23 11:27:03;;;;;;;8.93;6.63;;;23.20;25.00;;;;;;4978495;28;20991;-51
2021/04/23 11:29:32;;;;;;;6.37;5.73;;;23.50;24.60;;;;;;4993448;28;20730;-53
2021/04/23 11:32:06;;;;;;;9.23;6.63;;;23.70;24.50;;;;;;4993911;28;20621;-53
2021/04/23 11:34:35;;;;;;;10.60;6.77;;;23.80;24.50;;;;;;4994445;28;20635;-52
2021/04/23 11:37:03;;;;;;;7.50;6.77;;;24.10;24.40;;;;;;4996347;28;21204;-51
2021/04/23 11:39:30;;;;;;;12.80;7.17;;;24.20;24.40;;;;;;4993404;28;20648;-51
2021/04/23 11:42:15;;;;;;;11.50;5.60;;;24.30;24.50;;;;;;4993372;28;20659;-51
2021/04/23 11:44:50;;;;;;;10.13;7.30;;;23.90;24.60;;;;;;4992917;28;20676;-52
2021/04/23 11:47:18;;;;;;;8.97;6.30;;;23.50;25.00;;;;;;4991867;28;20628;-53
2021/04/23 11:49:45;;;;;;;7.03;6.30;;;23.20;24.90;;;;;;4993289;28;20734;-54
2021/04/23 11:52:12;;;;;;;10.93;6.37;;;23.20;25.10;;;;;;4993804;28;20667;-51
2021/04/23 11:54:41;;;;;;;13.10;11.17;;;23.00;25.20;;;;;;4993790;28;20621;-51
2021/04/23 11:57:09;;;;;;;9.70;7.40;;;22.90;25.00;;;;;;4992612;28;20621;-51
2021/04/23 11:59:36;;;;;;;6.60;5.90;;;22.80;25.30;;;;;;4993147;28;20719;-51
2021/04/23 12:02:04;;;;;;;11.63;8.00;;;22.80;25.30;;;;;;4993118;28;20637;-52
2021/04/23 12:04:44;;;;;;;14.83;7.50;;;22.80;25.00;;;;;;4992480;28;20668;-49
2021/04/23 12:07:12;;;;;;;7.83;6.97;;;22.70;25.20;;;;;;4989995;28;20685;-52
2021/04/23 12:09:39;;;;;;;14.50;6.13;;;22.70;25.50;;;;;;4993117;28;20670;-52
2021/04/23 12:12:08;;;;;;;7.07;5.37;;;22.80;25.40;;;;;;4993108;28;20629;-53
2021/04/23 12:14:42;;;;;;;7.40;6.20;;;22.80;24.90;;;;;;4993060;28;21213;-52
2021/04/23 12:17:09;;;;;;;8.57;6.60;;;22.80;24.60;;;;;;4992376;28;20683;-52
2021/04/23 12:19:36;;;;;;;13.70;7.20;;;22.90;24.90;;;;;;4991069;28;20742;-53
2021/04/23 12:22:04;;;;;;;8.57;6.70;;;23.20;25.10;;;;;;4989497;28;20624;-52
2021/04/23 12:24:30;;;;;;;8.13;5.90;;;23.50;25.00;;;;;;4989987;28;21252;-52
2021/04/23 12:26:57;;;;;;;8.77;7.27;;;23.90;24.30;;;;;;4985341;28;20684;-52
2021/04/23 12:29:24;;;;;;;10.73;6.80;;;24.20;24.10;;;;;;4991446;28;20692;-52
2021/04/23 12:31:51;;;;;;;9.80;5.53;;;24.30;23.50;;;;;;4992481;28;20672;-52
2021/04/23 12:34:18;;;;;;;8.60;6.70;;;24.30;23.40;;;;;;4991592;28;20659;-52
2021/04/23 12:36:46;;;;;;;11.40;6.73;;;24.20;23.30;;;;;;4995483;28;21041;-52
2021/04/23 12:39:14;;;;;;;8.30;6.13;;;24.00;23.20;;;;;;4996950;28;20659;-52
2021/04/23 12:41:42;;;;;;;10.30;5.97;;;23.90;23.10;;;;;;4993438;28;21188;-52
2021/04/23 12:44:09;;;;;;;6.80;5.07;;;23.70;23.20;;;;;;4992612;28;21239;-52
2021/04/23 12:46:37;;;;;;;9.33;5.80;;;23.80;22.90;;;;;;4995132;28;20628;-52